Time;durP1;ratioP1;P1;durP2;ratioP2;P2;SDS_P1;SDS_P2;PMS_P1;PMS_P2;Temp;Humidity;BMP_temperature;BMP_pressure;BME280_temperature;BME280_humidity;BME280_pressure;Samples;Min_cycle;Max_cycle;Signal;HPM_P1;HPM_P2
2021/12/15 00:00:28;;;;;;;52.33;22.73;;;;;;;10.96;70.64;102334.00;687315;28;1382;-81
2021/12/15 00:00:49;;;;;;;56.72;24.60;;;;;;;10.95;70.41;102327.00;687322;28;1342;-81
2021/12/15 00:01:10;;;;;;;58.10;25.27;;;;;;;10.92;70.51;102316.41;687074;28;1271;-81
2021/12/15 00:01:34;;;;;;;54.53;25.05;;;;;;;10.88;70.77;102311.81;688940;28;1271;-81
2021/12/15 00:01:58;;;;;;;50.78;24.40;;;;;;;10.92;70.78;102318.09;690444;28;1206;-81
2021/12/15 00:02:21;;;;;;;47.03;23.90;;;;;;;10.88;70.51;102311.81;687499;28;1393;-82
2021/12/15 00:02:44;;;;;;;49.17;24.17;;;;;;;10.88;70.70;102314.44;689418;28;1130;-82
2021/12/15 00:03:06;;;;;;;50.45;24.48;;;;;;;10.92;70.76;102313.78;687663;28;1552;-81
2021/12/15 00:03:27;;;;;;;50.67;24.25;;;;;;;10.91;70.57;102314.59;687815;28;1440;-81
2021/12/15 00:03:48;;;;;;;49.42;23.73;;;;;;;10.91;70.77;102317.22;683562;28;1500;-81
2021/12/15 00:04:09;;;;;;;47.90;22.73;;;;;;;10.93;70.44;102317.28;685456;28;965;-81
2021/12/15 00:04:30;;;;;;;50.72;23.33;;;;;;;10.92;70.61;102319.00;687942;28;1318;-82
2021/12/15 00:04:52;;;;;;;49.47;23.25;;;;;;;10.91;70.67;102312.00;687085;28;767;-81
2021/12/15 00:05:20;;;;;;;51.75;24.00;;;;;;;10.94;70.41;102319.09;690571;28;1256;-81
2021/12/15 00:05:45;;;;;;;53.80;23.92;;;;;;;10.94;70.77;102325.22;688932;28;1318;-82
2021/12/15 00:06:12;;;;;;;53.70;24.00;;;;;;;10.93;70.66;102319.88;688950;28;1145;-82
2021/12/15 00:06:33;;;;;;;52.08;24.02;;;;;;;10.92;70.83;102318.09;688225;28;1214;-81
2021/12/15 00:06:56;;;;;;;49.33;23.48;;;;;;;10.92;70.76;102320.72;689083;28;1629;-81
2021/12/15 00:07:20;;;;;;;49.75;23.83;;;;;;;10.87;70.69;102309.16;689328;28;1138;-81
2021/12/15 00:07:40;;;;;;;50.90;23.63;;;;;;;10.87;70.74;102317.88;688123;28;1437;-81
2021/12/15 00:08:04;;;;;;;54.78;24.30;;;;;;;10.88;70.54;102311.81;682194;28;1386;-81
2021/12/15 00:08:25;;;;;;;58.25;24.42;;;;;;;10.88;70.70;102311.81;686092;28;1263;-82
2021/12/15 00:08:49;;;;;;;57.58;23.67;;;;;;;10.90;70.93;102318.03;690223;28;1275;-81
2021/12/15 00:09:13;;;;;;;53.65;23.15;;;;;;;10.93;70.57;102319.88;689693;28;1345;-82
2021/12/15 00:09:33;;;;;;;53.00;22.70;;;;;;;10.91;70.60;102311.09;688613;28;1514;-82
2021/12/15 00:09:54;;;;;;;51.50;22.52;;;;;;;10.91;70.58;102313.69;687951;28;1268;-81
2021/12/15 00:10:15;;;;;;;52.05;23.13;;;;;;;10.87;70.78;102315.25;686653;28;1370;-82
2021/12/15 00:10:36;;;;;;;51.38;24.35;;;;;;;10.88;70.62;102306.59;689665;28;1165;-81
2021/12/15 00:10:57;;;;;;;51.20;24.83;;;;;;;10.90;70.83;102312.81;689854;28;1302;-81
2021/12/15 00:11:19;;;;;;;49.40;24.60;;;;;;;10.95;70.73;102318.28;685519;28;1306;-82
2021/12/15 00:11:40;;;;;;;50.70;24.33;;;;;;;10.90;70.46;102312.81;686910;28;1445;-82
2021/12/15 00:12:04;;;;;;;52.45;24.58;;;;;;;10.96;70.46;102322.69;685262;28;1504;-80
2021/12/15 00:12:25;;;;;;;54.40;24.48;;;;;;;10.90;70.83;102310.22;685372;28;1354;-79
2021/12/15 00:12:47;;;;;;;52.45;24.75;;;;;;;10.90;70.58;102307.59;685358;28;1226;-79
2021/12/15 00:13:10;;;;;;;53.35;25.25;;;;;;;10.97;70.83;102330.59;688426;28;1198;-79
2021/12/15 00:13:32;;;;;;;51.58;24.73;;;;;;;10.99;70.58;102324.56;689838;28;1910;-82
2021/12/15 00:13:54;;;;;;;54.75;25.08;;;;;;;10.92;70.60;102313.78;690575;28;1253;-82
2021/12/15 00:14:18;;;;;;;53.75;24.45;;;;;;;10.91;70.63;102312.00;691911;28;1372;-82
2021/12/15 00:14:38;;;;;;;54.55;24.63;;;;;;;10.93;70.78;102309.44;690023;28;1373;-82
2021/12/15 00:14:59;;;;;;;52.75;24.15;;;;;;;10.92;70.91;102315.50;688073;28;1407;-81
2021/12/15 00:15:22;;;;;;;51.45;24.48;;;;;;;10.99;70.50;102319.34;687916;28;1468;-82
2021/12/15 00:15:46;;;;;;;51.65;24.77;;;;;;;10.96;70.78;102323.56;688011;28;1143;-82
2021/12/15 00:16:09;;;;;;;50.80;24.25;;;;;;;10.99;70.85;102319.34;686481;28;1131;-82
2021/12/15 00:16:30;;;;;;;50.17;24.13;;;;;;;10.89;70.64;102316.25;685319;28;1278;-81
2021/12/15 00:16:51;;;;;;;51.95;24.27;;;;;;;10.92;70.75;102323.31;690432;28;1258;-82
2021/12/15 00:17:11;;;;;;;50.58;24.02;;;;;;;10.92;70.76;102321.63;690132;28;1500;-81
2021/12/15 00:17:32;;;;;;;53.00;23.83;;;;;;;10.90;70.62;102314.53;687993;28;1432;-81
2021/12/15 00:17:54;;;;;;;53.50;24.13;;;;;;;10.96;70.75;102326.16;690312;28;1130;-81
2021/12/15 00:18:15;;;;;;;50.88;23.70;;;;;;;10.99;70.64;102327.16;688749;28;1296;-82
2021/12/15 00:18:41;;;;;;;46.60;23.30;;;;;;;10.93;70.95;102312.97;692040;28;1439;-81
2021/12/15 00:19:04;;;;;;;47.33;24.38;;;;;;;10.96;70.91;102317.47;689878;28;1379;-81
2021/12/15 00:19:27;;;;;;;54.60;25.38;;;;;;;11.00;70.79;102310.69;687510;28;2024;-81
2021/12/15 00:19:47;;;;;;;53.63;25.20;;;;;;;10.98;70.67;102313.19;685134;28;1262;-82
2021/12/15 00:20:12;;;;;;;51.60;24.25;;;;;;;11.00;70.46;102321.13;682589;29;1083;-81
2021/12/15 00:20:34;;;;;;;48.15;23.80;;;;;;;11.00;70.62;102313.28;687425;28;1225;-81
2021/12/15 00:20:55;;;;;;;50.15;24.13;;;;;;;10.99;70.32;102314.97;687744;28;1342;-81
2021/12/15 00:21:19;;;;;;;50.00;24.03;;;;;;;10.95;70.72;102313.06;688039;28;1290;-81
2021/12/15 00:21:40;;;;;;;47.67;24.13;;;;;;;10.96;70.86;102313.13;690429;28;1440;-81
2021/12/15 00:22:01;;;;;;;47.88;24.35;;;;;;;10.94;70.93;102304.31;690557;28;1524;-81
2021/12/15 00:22:22;;;;;;;46.92;24.38;;;;;;;10.99;70.60;102311.50;688030;28;1163;-83
2021/12/15 00:22:43;;;;;;;48.50;23.90;;;;;;;11.05;70.76;102325.75;687376;28;1311;-81
2021/12/15 00:23:05;;;;;;;48.15;23.70;;;;;;;10.94;70.77;102312.16;690073;28;1384;-81
2021/12/15 00:23:26;;;;;;;50.50;24.40;;;;;;;10.94;70.63;102317.38;684766;28;1598;-81
2021/12/15 00:23:48;;;;;;;50.58;24.70;;;;;;;10.94;70.60;102309.53;685135;28;1136;-79
2021/12/15 00:24:09;;;;;;;51.42;24.75;;;;;;;10.95;70.81;102313.06;686396;28;1471;-79
2021/12/15 00:24:30;;;;;;;47.30;23.88;;;;;;;11.03;70.79;102331.72;687620;28;988;-79
2021/12/15 00:24:51;;;;;;;48.33;23.52;;;;;;;10.95;70.73;102313.94;685793;28;1499;-79
2021/12/15 00:25:13;;;;;;;50.40;24.50;;;;;;;10.95;70.53;102313.94;684841;28;1452;-81
2021/12/15 00:25:38;;;;;;;49.78;24.30;;;;;;;10.99;70.69;102324.56;690990;28;1287;-81
2021/12/15 00:25:59;;;;;;;47.65;24.02;;;;;;;10.96;70.52;102313.13;688064;28;1123;-81
2021/12/15 00:26:20;;;;;;;47.67;23.58;;;;;;;10.96;70.61;102315.72;682339;28;1180;-81
2021/12/15 00:26:40;;;;;;;50.67;24.20;;;;;;;10.97;70.71;102314.94;684324;28;1150;-82
2021/12/15 00:27:02;;;;;;;49.22;24.02;;;;;;;10.93;70.73;102317.28;682687;28;1157;-81
2021/12/15 00:27:24;;;;;;;47.17;23.73;;;;;;;10.92;70.85;102313.78;682719;29;1136;-81
2021/12/15 00:27:45;;;;;;;49.05;24.63;;;;;;;10.91;70.66;102317.22;686795;28;1367;-81
2021/12/15 00:28:06;;;;;;;52.95;24.40;;;;;;;10.89;70.98;102313.66;688735;28;1269;-81
2021/12/15 00:28:27;;;;;;;52.35;24.88;;;;;;;10.95;70.93;102323.50;685254;28;1459;-81
2021/12/15 00:28:49;;;;;;;50.83;24.00;;;;;;;10.91;70.78;102319.84;686851;28;1288;-81
2021/12/15 00:29:10;;;;;;;48.30;24.20;;;;;;;10.94;70.95;102319.09;685440;28;1318;-81
2021/12/15 00:29:31;;;;;;;46.83;23.60;;;;;;;10.90;70.40;102304.97;685105;28;1132;-81
2021/12/15 00:29:51;;;;;;;47.97;23.80;;;;;;;10.90;70.72;102309.28;688204;28;1526;-81
2021/12/15 00:30:12;;;;;;;48.15;23.75;;;;;;;10.93;70.81;102315.56;687455;28;1340;-81
2021/12/15 00:30:33;;;;;;;48.70;23.85;;;;;;;10.88;70.91;102313.56;685272;28;1454;-81
2021/12/15 00:30:54;;;;;;;49.30;23.88;;;;;;;10.93;70.81;102328.63;683609;28;1405;-81
2021/12/15 00:31:14;;;;;;;49.50;23.97;;;;;;;10.92;70.78;102318.09;685463;28;1250;-81
2021/12/15 00:31:37;;;;;;;48.83;23.70;;;;;;;10.90;71.04;102315.44;685560;28;1164;-81
2021/12/15 00:32:03;;;;;;;46.60;23.48;;;;;;;10.94;70.95;102321.72;683453;28;1236;-81
2021/12/15 00:32:24;;;;;;;47.00;24.00;;;;;;;10.99;70.70;102316.72;684301;28;1212;-81
2021/12/15 00:32:45;;;;;;;48.97;24.08;;;;;;;10.96;70.76;102313.13;687847;28;1128;-81
2021/12/15 00:33:07;;;;;;;50.10;23.90;;;;;;;10.93;70.75;102318.19;687957;28;1290;-81
2021/12/15 00:33:28;;;;;;;47.47;23.55;;;;;;;10.92;70.83;102319.00;684957;28;1355;-81
2021/12/15 00:33:48;;;;;;;52.03;23.90;;;;;;;10.92;70.72;102324.25;681896;29;1891;-81
2021/12/15 00:34:10;;;;;;;52.47;23.77;;;;;;;10.88;70.86;102322.25;686502;28;1291;-81
2021/12/15 00:34:34;;;;;;;56.40;24.33;;;;;;;10.93;70.78;102318.19;682359;29;1412;-81
2021/12/15 00:34:54;;;;;;;52.25;24.27;;;;;;;10.88;70.67;102314.44;682565;29;1264;-81
2021/12/15 00:35:18;;;;;;;52.00;24.87;;;;;;;10.91;70.82;102326.75;682670;28;1444;-81
2021/12/15 00:35:39;;;;;;;47.88;24.63;;;;;;;10.95;70.87;102323.50;686256;28;1537;-81
2021/12/15 00:36:00;;;;;;;48.03;24.30;;;;;;;10.90;70.68;102311.91;684741;28;1449;-82
2021/12/15 00:36:22;;;;;;;46.17;22.67;;;;;;;10.96;70.59;102325.28;687450;28;1156;-81
2021/12/15 00:36:44;;;;;;;45.70;23.13;;;;;;;10.99;70.69;102329.78;688158;28;1060;-81
2021/12/15 00:37:05;;;;;;;47.78;24.02;;;;;;;10.92;70.52;102323.31;685321;28;1120;-81
2021/12/15 00:37:26;;;;;;;50.58;24.85;;;;;;;10.91;70.91;102318.94;688059;28;1254;-81
2021/12/15 00:37:49;;;;;;;50.60;24.10;;;;;;;10.85;70.75;102313.38;687457;28;1309;-81
2021/12/15 00:38:10;;;;;;;51.63;24.58;;;;;;;10.89;70.60;102315.34;687317;28;1318;-81
2021/12/15 00:38:32;;;;;;;51.85;23.75;;;;;;;10.86;70.89;102323.03;686675;28;1527;-81
2021/12/15 00:38:53;;;;;;;51.63;24.05;;;;;;;10.86;70.83;102315.19;691720;28;1371;-81
2021/12/15 00:39:32;;;;;;;50.57;24.00;;;;;;;10.94;70.92;102335.66;690346;28;1422;-81
2021/12/15 00:39:53;;;;;;;48.15;23.90;;;;;;;10.85;70.75;102311.69;689680;28;1328;-81
2021/12/15 00:40:16;;;;;;;45.90;23.15;;;;;;;10.88;70.59;102311.81;687698;28;1385;-81
2021/12/15 00:40:37;;;;;;;49.72;23.58;;;;;;;10.88;70.76;102322.25;684087;28;1402;-81
2021/12/15 00:41:00;;;;;;;48.25;24.08;;;;;;;10.90;70.92;102331.09;687537;28;1682;-81
2021/12/15 00:41:21;;;;;;;49.10;23.88;;;;;;;10.90;71.05;102325.88;685471;28;1052;-81
2021/12/15 00:41:44;;;;;;;48.75;24.30;;;;;;;10.90;70.79;102320.66;683920;28;1168;-81
2021/12/15 00:42:05;;;;;;;46.40;23.00;;;;;;;10.91;70.63;102322.44;687652;28;1276;-81
2021/12/15 00:42:26;;;;;;;48.28;23.65;;;;;;;10.83;70.67;102313.31;686770;28;1401;-82
2021/12/15 00:42:47;;;;;;;49.28;23.63;;;;;;;10.89;70.89;102326.72;690223;28;1429;-82
2021/12/15 00:43:24;;;;;;;48.75;23.88;;;;;;;10.89;70.50;102325.78;691020;28;1293;-81
2021/12/15 00:43:45;;;;;;;47.15;23.75;;;;;;;10.86;70.98;102318.69;686000;28;1115;-81
2021/12/15 00:44:07;;;;;;;48.03;24.08;;;;;;;10.83;70.66;102308.97;684895;28;1154;-81
2021/12/15 00:44:28;;;;;;;48.15;24.58;;;;;;;10.93;70.64;102328.63;685276;28;1358;-81
2021/12/15 00:44:49;;;;;;;47.58;24.05;;;;;;;10.85;70.54;102313.38;687818;28;1428;-82
2021/12/15 00:45:10;;;;;;;45.60;23.70;;;;;;;10.87;70.66;102319.59;681864;28;1579;-81
2021/12/15 00:45:31;;;;;;;46.17;23.42;;;;;;;10.90;70.51;102319.75;685837;28;1964;-81
2021/12/15 00:45:51;;;;;;;47.58;24.35;;;;;;;10.87;70.62;102323.09;693231;28;1343;-81
2021/12/15 00:46:13;;;;;;;48.10;24.37;;;;;;;10.86;70.53;102309.97;690256;28;1376;-81
2021/12/15 00:46:34;;;;;;;46.60;24.15;;;;;;;10.88;70.22;102321.38;690308;28;1154;-81
2021/12/15 00:46:55;;;;;;;44.53;22.90;;;;;;;10.87;70.42;102325.69;689769;28;1242;-81
2021/12/15 00:47:16;;;;;;;43.25;22.67;;;;;;;10.86;70.49;102321.31;687588;28;1353;-81
2021/12/15 00:47:37;;;;;;;42.75;22.48;;;;;;;10.88;70.50;102317.03;687841;28;1350;-81
2021/12/15 00:47:59;;;;;;;43.60;22.80;;;;;;;10.86;70.62;102313.47;688038;28;1384;-81
2021/12/15 00:48:19;;;;;;;44.35;22.60;;;;;;;10.82;70.52;102319.38;683300;28;1256;-81
2021/12/15 00:48:42;;;;;;;47.10;22.75;;;;;;;10.87;70.70;102327.44;685102;28;1464;-82
2021/12/15 00:49:03;;;;;;;46.47;23.05;;;;;;;10.83;70.77;102318.53;682398;28;1274;-81
2021/12/15 00:49:24;;;;;;;48.85;23.50;;;;;;;10.79;70.68;102316.56;684587;28;1385;-82
2021/12/15 00:49:45;;;;;;;46.13;23.02;;;;;;;10.83;70.61;102322.03;683412;28;1301;-81
2021/12/15 00:50:17;;;;;;;44.67;22.45;;;;;;;10.85;70.49;102323.81;684957;28;1175;-81
2021/12/15 00:50:57;;;;;;;47.45;23.02;;;;;;;10.86;70.66;102318.69;685137;28;910;-81
2021/12/15 00:51:20;;;;;;;47.70;24.05;;;;;;;10.82;70.86;102317.63;683041;28;1767;-82
2021/12/15 00:51:42;;;;;;;47.13;24.57;;;;;;;10.79;70.78;102311.34;690449;28;1533;-81
2021/12/15 00:52:04;;;;;;;45.92;23.70;;;;;;;10.83;70.61;102318.53;684946;28;1448;-81
2021/12/15 00:52:25;;;;;;;45.47;22.88;;;;;;;10.82;70.82;102316.75;690661;28;1340;-81
2021/12/15 00:52:46;;;;;;;45.47;22.50;;;;;;;10.76;70.92;102306.84;687210;28;1159;-81
2021/12/15 00:53:07;;;;;;;43.83;22.48;;;;;;;10.86;70.78;102320.44;691057;28;1843;-79
2021/12/15 00:53:29;;;;;;;44.50;22.48;;;;;;;10.81;70.77;102308.00;687557;28;1330;-78
2021/12/15 00:53:51;;;;;;;44.65;21.92;;;;;;;10.80;70.70;102307.91;688978;28;1985;-78
2021/12/15 00:54:13;;;;;;;44.35;22.15;;;;;;;10.82;70.62;102311.53;689910;28;1361;-79
2021/12/15 00:54:35;;;;;;;44.03;21.77;;;;;;;10.81;70.84;102312.31;692627;28;1324;-81
2021/12/15 00:54:55;;;;;;;46.55;22.60;;;;;;;10.81;70.66;102315.84;691416;28;1298;-81
2021/12/15 00:55:20;;;;;;;48.23;23.10;;;;;;;10.80;70.70;102318.38;691344;28;1378;-81
2021/12/15 00:55:43;;;;;;;51.63;24.55;;;;;;;10.87;70.82;102325.69;690349;28;1250;-81
2021/12/15 00:56:04;;;;;;;46.15;23.45;;;;;;;10.80;70.58;102310.53;684733;28;1359;-81
2021/12/15 00:56:25;;;;;;;43.33;22.83;;;;;;;10.83;70.83;102315.94;685276;28;1532;-81
2021/12/15 00:56:45;;;;;;;44.93;22.13;;;;;;;10.87;70.73;102317.88;686295;28;1286;-81
2021/12/15 00:57:06;;;;;;;47.13;22.37;;;;;;;10.80;70.72;102313.13;687441;28;1541;-81
2021/12/15 00:57:27;;;;;;;48.55;22.70;;;;;;;10.81;70.88;102317.53;685153;28;1370;-81
2021/12/15 00:58:01;;;;;;;47.42;23.35;;;;;;;10.85;70.62;102321.22;683432;28;1295;-81
2021/12/15 00:58:21;;;;;;;47.33;23.27;;;;;;;10.80;70.61;102318.38;685311;28;1174;-81
2021/12/15 00:58:43;;;;;;;45.60;22.50;;;;;;;10.79;70.83;102312.25;688721;28;1373;-81
2021/12/15 00:59:05;;;;;;;45.08;22.40;;;;;;;10.82;70.81;102316.75;690209;28;1455;-81
2021/12/15 00:59:26;;;;;;;44.63;22.52;;;;;;;10.79;70.73;102307.03;686147;28;912;-81
2021/12/15 00:59:47;;;;;;;47.33;23.30;;;;;;;10.79;70.88;102311.34;690343;28;1432;-81
2021/12/15 01:00:12;;;;;;;47.40;22.97;;;;;;;10.89;70.74;102323.19;687175;28;1397;-81
2021/12/15 01:00:40;;;;;;;47.25;22.30;;;;;;;10.87;70.56;102312.66;689056;28;1265;-81
2021/12/15 01:01:03;;;;;;;48.38;22.48;;;;;;;10.87;70.69;102312.66;687126;28;1235;-81
2021/12/15 01:01:23;;;;;;;45.20;22.80;;;;;;;10.82;70.52;102309.78;684551;28;1172;-81
2021/12/15 01:01:44;;;;;;;46.20;22.67;;;;;;;10.80;70.68;102310.53;687866;28;1136;-81
2021/12/15 01:02:09;;;;;;;44.65;22.30;;;;;;;10.80;70.43;102308.84;687352;28;1485;-81
2021/12/15 01:02:30;;;;;;;43.28;21.98;;;;;;;10.85;70.62;102321.22;684695;28;1271;-81
2021/12/15 01:02:52;;;;;;;42.15;21.67;;;;;;;10.80;70.71;102313.13;684957;28;1341;-81
2021/12/15 01:03:13;;;;;;;42.05;21.13;;;;;;;10.82;70.59;102316.75;687717;28;1299;-81
2021/12/15 01:03:35;;;;;;;42.72;21.80;;;;;;;10.81;70.59;102309.72;687798;28;1500;-81
2021/12/15 01:03:56;;;;;;;44.10;22.60;;;;;;;10.81;70.67;102310.63;689154;28;1289;-81
2021/12/15 01:04:19;;;;;;;43.95;22.30;;;;;;;10.80;70.42;102313.13;687391;28;1481;-81
2021/12/15 01:04:40;;;;;;;43.00;22.17;;;;;;;10.78;70.61;102304.34;688689;28;1392;-81
2021/12/15 01:05:01;;;;;;;43.33;22.40;;;;;;;10.79;70.56;102317.47;687931;28;1428;-81
2021/12/15 01:05:24;;;;;;;46.80;23.20;;;;;;;10.76;70.59;102301.63;684951;28;1511;-81
2021/12/15 01:05:50;;;;;;;47.38;22.92;;;;;;;10.81;70.76;102313.22;687846;28;1299;-81
2021/12/15 01:06:16;;;;;;;48.08;23.17;;;;;;;10.77;70.63;102308.69;684186;28;1216;-81
2021/12/15 01:06:39;;;;;;;45.72;23.63;;;;;;;10.74;70.65;102302.41;691067;28;1393;-81
2021/12/15 01:07:04;;;;;;;45.85;23.25;;;;;;;10.77;71.12;102307.78;689692;28;1233;-81
2021/12/15 01:07:25;;;;;;;41.35;21.85;;;;;;;10.81;70.54;102321.06;687915;28;1381;-81
2021/12/15 01:07:47;;;;;;;45.10;22.30;;;;;;;10.69;70.78;102310.88;686179;28;1335;-81
2021/12/15 01:08:13;;;;;;;44.00;22.33;;;;;;;10.72;70.81;102314.47;689461;28;1432;-81
2021/12/15 01:08:40;;;;;;;46.00;22.80;;;;;;;10.77;70.75;102313.00;690034;28;1139;-81
2021/12/15 01:09:08;;;;;;;43.65;23.05;;;;;;;10.76;70.77;102319.03;684817;28;1361;-81
2021/12/15 01:09:47;;;;;;;42.30;22.15;;;;;;;10.78;71.04;102327.84;687308;28;1247;-81
2021/12/15 01:10:10;;;;;;;42.13;21.63;;;;;;;10.72;70.69;102306.63;687278;28;1259;-81
2021/12/15 01:10:46;;;;;;;43.65;21.50;;;;;;;10.68;71.00;102309.09;687322;28;1318;-81
2021/12/15 01:11:20;;;;;;;45.80;21.58;;;;;;;10.74;70.62;102308.50;690287;28;1281;-81
2021/12/15 01:12:11;;;;;;;47.45;22.58;;;;;;;10.71;70.73;102315.28;691469;28;1045;-78
2021/12/15 01:20:00;;;;;;;43.95;22.60;;;;;;;10.64;70.83;102311.47;687187;28;1635;-81
2021/12/15 01:20:27;;;;;;;43.67;21.92;;;;;;;10.59;70.65;102300.78;687906;28;1152;-81
2021/12/15 01:20:51;;;;;;;44.88;21.40;;;;;;;10.66;70.80;102313.34;689142;28;1415;-81
2021/12/15 01:21:13;;;;;;;42.38;21.45;;;;;;;10.67;70.35;102322.06;693368;28;1197;-81
2021/12/15 01:21:34;;;;;;;44.15;21.70;;;;;;;10.66;70.50;102320.25;694469;28;1224;-81
2021/12/15 01:21:57;;;;;;;43.33;21.60;;;;;;;10.62;70.57;102318.31;693184;28;1356;-81
2021/12/15 01:22:28;;;;;;;42.38;21.17;;;;;;;10.63;70.44;102315.78;691199;28;1143;-81
2021/12/15 01:22:52;;;;;;;40.88;21.35;;;;;;;10.63;70.65;102313.16;692187;28;1188;-81
2021/12/15 01:23:15;;;;;;;43.85;21.38;;;;;;;10.59;70.67;102315.53;690119;28;1384;-81
2021/12/15 01:23:36;;;;;;;44.03;21.50;;;;;;;10.59;70.67;102310.31;685280;28;1365;-81
2021/12/15 01:23:57;;;;;;;44.35;22.15;;;;;;;10.53;70.86;102308.28;685095;28;1211;-81
2021/12/15 01:24:21;;;;;;;42.23;21.67;;;;;;;10.63;70.68;102325.34;684874;28;1197;-81
2021/12/15 01:24:42;;;;;;;41.88;21.20;;;;;;;10.49;70.55;102308.91;684488;28;1217;-81
2021/12/15 01:25:14;;;;;;;40.47;20.83;;;;;;;10.54;70.53;102312.69;684896;28;1319;-81
2021/12/15 01:25:39;;;;;;;38.55;20.52;;;;;;;10.54;70.79;102316.19;684946;28;1295;-81
2021/12/15 01:26:09;;;;;;;39.30;20.60;;;;;;;10.53;70.52;102313.50;690270;28;1082;-81
2021/12/15 01:26:30;;;;;;;43.38;21.50;;;;;;;10.51;70.83;102318.63;689459;28;1281;-81
2021/12/15 01:26:51;;;;;;;46.20;22.00;;;;;;;10.52;70.87;102311.72;687875;28;1250;-81
2021/12/15 01:27:12;;;;;;;45.65;22.55;;;;;;;10.45;70.67;102306.97;682062;28;1306;-81
2021/12/15 01:27:32;;;;;;;45.40;22.25;;;;;;;10.40;70.65;102307.63;683268;28;1390;-81
2021/12/15 01:27:53;;;;;;;41.55;21.75;;;;;;;10.44;70.66;102313.03;685134;28;1446;-80
2021/12/15 01:28:15;;;;;;;39.90;20.90;;;;;;;10.46;70.49;102312.28;687561;28;1248;-81
2021/12/15 01:28:35;;;;;;;41.90;21.55;;;;;;;10.49;71.06;102319.34;681466;28;1792;-81
2021/12/15 01:28:57;;;;;;;42.50;20.98;;;;;;;10.48;70.58;102326.31;682316;29;1195;-81
2021/12/15 01:29:18;;;;;;;41.45;20.83;;;;;;;10.42;70.78;102315.53;684472;28;1271;-81
2021/12/15 01:29:38;;;;;;;40.42;20.75;;;;;;;10.43;70.69;102311.22;686827;28;1271;-81
2021/12/15 01:29:59;;;;;;;41.03;21.48;;;;;;;10.39;70.73;102310.16;679543;29;1450;-81
2021/12/15 01:30:25;;;;;;;41.03;21.90;;;;;;;10.41;70.74;102313.75;687303;28;1964;-81
2021/12/15 01:31:07;;;;;;;41.58;21.73;;;;;;;10.43;70.70;102312.09;682520;28;1152;-81
2021/12/15 01:31:28;;;;;;;41.75;21.70;;;;;;;10.38;70.83;102306.63;684937;28;1448;-81
2021/12/15 01:31:48;;;;;;;42.85;21.67;;;;;;;10.35;70.70;102303.88;687453;28;1183;-81
2021/12/15 01:32:09;;;;;;;42.13;21.33;;;;;;;10.38;70.64;102309.25;689375;28;1257;-81
2021/12/15 01:32:29;;;;;;;39.78;20.95;;;;;;;10.37;70.92;102311.78;687004;28;1238;-81
2021/12/15 01:32:51;;;;;;;40.22;20.80;;;;;;;10.39;70.84;102313.66;687659;28;1367;-81
2021/12/15 01:33:12;;;;;;;40.90;21.90;;;;;;;10.40;70.71;102314.56;683984;28;1272;-81
2021/12/15 01:33:34;;;;;;;42.80;22.20;;;;;;;10.43;70.75;102321.66;687520;28;1965;-81
2021/12/15 01:34:00;;;;;;;42.00;22.15;;;;;;;10.35;70.78;102306.50;685138;28;1457;-81
2021/12/15 01:34:21;;;;;;;40.45;20.55;;;;;;;10.40;70.84;102312.84;685053;28;1435;-81
2021/12/15 01:34:42;;;;;;;38.67;20.00;;;;;;;10.36;70.90;102305.66;688768;28;1151;-81
2021/12/15 01:35:03;;;;;;;39.95;19.90;;;;;;;10.34;70.67;102306.41;692649;28;1309;-81
2021/12/15 01:35:25;;;;;;;40.83;20.50;;;;;;;10.36;70.51;102321.34;687796;28;1274;-81
2021/12/15 01:35:49;;;;;;;39.25;20.15;;;;;;;10.30;70.78;102305.34;685617;28;1108;-81
2021/12/15 01:36:11;;;;;;;39.42;20.00;;;;;;;10.30;70.69;102307.94;681977;29;1327;-81
2021/12/15 01:36:32;;;;;;;36.33;19.73;;;;;;;10.31;70.81;102311.47;687999;28;1353;-82
2021/12/15 01:36:52;;;;;;;36.55;20.02;;;;;;;10.30;70.52;102305.34;690281;28;1362;-81
2021/12/15 01:37:13;;;;;;;35.20;20.40;;;;;;;10.31;70.69;102308.84;685036;28;1511;-81
2021/12/15 01:37:34;;;;;;;37.78;20.80;;;;;;;10.32;70.76;102303.69;685040;28;1128;-81
2021/12/15 01:37:57;;;;;;;40.00;21.02;;;;;;;10.30;70.66;102305.34;690893;28;1207;-81
2021/12/15 01:38:20;;;;;;;40.33;20.65;;;;;;;10.32;70.79;102314.13;694909;28;1462;-81
2021/12/15 01:38:44;;;;;;;39.60;20.30;;;;;;;10.25;70.60;102299.88;688698;28;1461;-81
2021/12/15 01:39:06;;;;;;;39.22;20.27;;;;;;;10.31;70.84;102308.84;687501;28;1441;-82
2021/12/15 01:39:26;;;;;;;42.15;20.35;;;;;;;10.37;70.62;102322.22;684707;28;1221;-81
2021/12/15 01:39:52;;;;;;;43.78;20.80;;;;;;;10.30;70.76;102312.28;688879;28;1277;-82
2021/12/15 01:40:23;;;;;;;44.40;21.42;;;;;;;10.30;70.95;102305.34;690254;28;1210;-81
2021/12/15 01:40:45;;;;;;;41.28;21.00;;;;;;;10.24;70.89;102305.91;688178;28;1162;-81
2021/12/15 01:41:08;;;;;;;42.40;20.92;;;;;;;10.25;70.84;102309.41;684441;28;1247;-81
2021/12/15 01:41:28;;;;;;;42.00;20.70;;;;;;;10.24;70.70;102308.53;689918;28;1195;-81
2021/12/15 01:41:50;;;;;;;42.33;20.58;;;;;;;10.25;70.86;102312.00;689903;28;1253;-81
2021/12/15 01:42:11;;;;;;;39.97;20.30;;;;;;;10.23;70.70;102304.13;690157;28;1419;-81
2021/12/15 01:42:34;;;;;;;40.78;20.73;;;;;;;10.27;70.53;102313.88;691377;28;1220;-81
2021/12/15 01:42:54;;;;;;;41.60;21.05;;;;;;;10.27;70.59;102313.00;689214;28;1336;-81
2021/12/15 01:43:35;;;;;;;45.53;21.70;;;;;;;10.18;70.67;102305.53;690218;28;1242;-81
2021/12/15 01:47:02;;;;;;;43.72;21.23;;;;;;;10.14;70.72;102304.47;691937;28;1158;-81
2021/12/15 01:47:23;;;;;;;45.35;21.13;;;;;;;10.15;70.41;102303.66;687537;28;1289;-81
2021/12/15 01:48:05;;;;;;;45.33;21.05;;;;;;;10.12;70.69;102303.50;688698;28;1289;-81
2021/12/15 01:48:26;;;;;;;41.35;21.05;;;;;;;10.10;70.51;102302.53;689591;28;1364;-81
2021/12/15 01:48:59;;;;;;;44.43;22.37;;;;;;;10.10;70.83;102307.75;690979;28;1183;-81
2021/12/15 01:49:25;;;;;;;42.78;21.38;;;;;;;10.09;70.72;102308.53;686244;28;1413;-81
2021/12/15 01:49:50;;;;;;;39.10;20.38;;;;;;;10.12;70.57;102299.97;688481;28;1344;-81
2021/12/15 01:50:12;;;;;;;40.40;20.70;;;;;;;10.08;70.71;102304.13;690398;28;1416;-81
2021/12/15 01:50:33;;;;;;;44.03;20.67;;;;;;;10.06;70.98;102300.53;685745;28;1282;-81
2021/12/15 01:50:55;;;;;;;45.00;20.60;;;;;;;10.07;70.43;102307.56;682398;29;1514;-81
2021/12/15 01:51:16;;;;;;;45.20;20.73;;;;;;;10.04;70.86;102296.06;690275;28;1368;-81
2021/12/15 01:51:37;;;;;;;39.03;19.63;;;;;;;10.07;70.80;102302.34;687821;28;1397;-81
2021/12/15 01:52:03;;;;;;;37.28;19.40;;;;;;;10.08;70.85;102306.72;684467;28;1398;-81
2021/12/15 01:52:37;;;;;;;40.55;20.25;;;;;;;10.03;70.89;102295.19;689221;28;1332;-82
2021/12/15 01:52:58;;;;;;;43.55;21.75;;;;;;;10.04;70.90;102302.19;689959;28;1425;-80
2021/12/15 01:53:19;;;;;;;42.90;21.52;;;;;;;10.05;70.70;102308.28;686875;28;1250;-81
2021/12/15 01:53:40;;;;;;;44.20;21.25;;;;;;;10.07;70.65;102312.78;687193;28;1911;-81
2021/12/15 01:54:02;;;;;;;45.85;20.05;;;;;;;10.02;70.56;102306.44;687382;28;1186;-81
2021/12/15 01:54:27;;;;;;;42.13;19.55;;;;;;;10.07;70.90;102318.00;684427;28;1353;-81
2021/12/15 01:55:17;;;;;;;42.47;19.95;;;;;;;10.10;70.83;102318.19;685780;28;1436;-81
2021/12/15 01:55:38;;;;;;;45.72;22.50;;;;;;;10.00;70.62;102301.13;682511;28;1598;-81
2021/12/15 01:55:59;;;;;;;43.30;22.00;;;;;;;10.07;70.88;102312.78;692294;28;1308;-81
2021/12/15 01:56:21;;;;;;;43.25;21.45;;;;;;;10.06;70.76;102310.09;687210;28;1222;-81
2021/12/15 01:56:44;;;;;;;40.03;21.05;;;;;;;10.06;70.66;102315.31;686788;28;1280;-81
2021/12/15 01:57:06;;;;;;;39.63;20.85;;;;;;;9.98;70.54;102301.84;687266;28;2453;-81
2021/12/15 01:57:30;;;;;;;40.92;20.52;;;;;;;9.97;70.83;102306.13;692047;28;2398;-81
2021/12/15 01:57:52;;;;;;;41.38;19.80;;;;;;;10.03;70.51;102310.81;689108;28;2541;-81